createdAt,value
2023-04-30T00:01:30.976Z,40.25
2023-04-30T00:06:38.289Z,40.31
2023-04-30T00:11:45.548Z,40.18
2023-04-30T00:16:52.867Z,40.12
2023-04-30T00:22:00.293Z,40.05
2023-04-30T00:27:45.431Z,40.67
2023-04-30T00:39:42.868Z,40.24
2023-04-30T00:45:35.438Z,40.20
2023-04-30T00:51:25.981Z,40.13
2023-04-30T00:57:34.246Z,40.27
2023-04-30T01:04:02.849Z,40.37
2023-04-30T01:09:50.474Z,40.48
2023-04-30T01:22:20.564Z,40.65
2023-04-30T01:28:12.172Z,40.84
2023-04-30T01:33:58.988Z,40.88
2023-04-30T01:39:46.319Z,40.99
2023-04-30T01:45:00.488Z,41.04
2023-04-30T01:50:40.932Z,41.06
2023-04-30T01:56:24.199Z,41.12
2023-04-30T02:07:05.702Z,41.27
2023-04-30T02:08:29.572Z,41.20
2023-04-30T02:12:17.501Z,41.37
2023-04-30T02:17:46.733Z,41.47
2023-04-30T02:23:09.823Z,41.44
2023-04-30T02:28:17.711Z,41.53
2023-04-30T02:34:15.477Z,41.50
2023-04-30T02:39:23.031Z,41.67
2023-04-30T02:44:40.249Z,41.66
2023-04-30T02:50:01.008Z,41.70
2023-04-30T02:55:43.344Z,41.76
2023-04-30T03:00:50.938Z,41.86
2023-04-30T03:05:58.834Z,41.83
2023-04-30T03:13:14.105Z,41.92
2023-04-30T03:16:49.579Z,41.86
2023-04-30T03:22:47.284Z,41.96
2023-04-30T03:28:29.591Z,41.97
2023-04-30T03:34:12.025Z,42.03
2023-04-30T03:39:29.853Z,42.25
2023-04-30T03:44:40.427Z,42.40
2023-04-30T03:50:27.799Z,42.40
2023-04-30T03:56:13.029Z,42.27
2023-04-30T04:01:20.691Z,42.48
2023-04-30T04:06:28.468Z,42.50
2023-04-30T04:11:36.136Z,42.68
2023-04-30T04:16:43.991Z,42.63
2023-04-30T04:21:51.882Z,42.79
2023-04-30T04:26:59.568Z,42.94
2023-04-30T04:32:07.717Z,43.14
2023-04-30T04:37:50.092Z,43.12
2023-04-30T04:43:09.828Z,43.30
2023-04-30T04:52:26.161Z,43.40
2023-04-30T04:53:31.184Z,43.46
2023-04-30T04:58:44.761Z,43.20
2023-04-30T05:04:17.756Z,43.00
2023-04-30T05:09:59.124Z,42.90
2023-04-30T05:15:41.412Z,42.88
2023-04-30T05:20:57.402Z,42.58
2023-04-30T05:26:05.123Z,42.47
2023-04-30T05:31:22.305Z,42.45
2023-04-30T05:36:32.409Z,42.52
2023-04-30T05:41:39.906Z,42.75
2023-04-30T05:46:47.366Z,42.88
2023-04-30T05:51:54.915Z,43.19
2023-04-30T05:57:11.076Z,42.93
2023-04-30T06:02:26.295Z,42.56
2023-04-30T06:07:46.306Z,42.56
2023-04-30T06:12:53.787Z,42.65
2023-04-30T06:18:05.998Z,42.82
2023-04-30T06:23:13.322Z,42.56
2023-04-30T06:28:38.228Z,43.26
2023-04-30T06:33:40.973Z,43.14
2023-04-30T06:38:55.004Z,42.89
2023-04-30T06:44:14.851Z,42.94
2023-04-30T06:49:18.876Z,42.71
2023-04-30T06:54:49.794Z,42.92
2023-04-30T06:59:59.014Z,42.87
2023-04-30T07:05:06.585Z,42.79
2023-04-30T07:10:14.260Z,43.18
2023-04-30T07:15:39.609Z,43.67
2023-04-30T07:20:34.516Z,43.44
2023-04-30T07:26:17.186Z,43.50
2023-04-30T07:31:59.889Z,43.79
2023-04-30T07:38:04.268Z,43.88
2023-04-30T07:43:11.531Z,44.27
2023-04-30T07:48:18.754Z,44.52
2023-04-30T07:53:25.997Z,44.46
2023-04-30T07:58:33.236Z,44.66
2023-04-30T08:03:40.765Z,44.22
2023-04-30T08:08:48.825Z,44.03
2023-04-30T08:13:55.301Z,44.71
2023-04-30T08:19:02.516Z,44.50
2023-04-30T08:24:16.009Z,44.11
2023-04-30T08:29:23.396Z,44.98
2023-04-30T08:34:30.613Z,44.84
2023-04-30T08:39:37.770Z,44.88
2023-04-30T08:44:45.077Z,44.57
2023-04-30T08:49:52.572Z,44.91
2023-04-30T08:54:59.533Z,44.56
2023-04-30T09:00:06.978Z,44.54
2023-04-30T09:05:14.342Z,45.16
2023-04-30T09:10:21.439Z,44.90
2023-04-30T09:15:28.630Z,44.86
2023-04-30T09:20:35.851Z,45.01
2023-04-30T09:25:43.044Z,45.36
2023-04-30T09:30:50.288Z,45.99
2023-04-30T09:35:57.622Z,45.90
2023-04-30T09:41:05.053Z,45.14
2023-04-30T09:46:12.255Z,45.46
2023-04-30T09:51:19.682Z,45.73
2023-04-30T09:56:26.905Z,45.41
2023-04-30T10:01:34.103Z,45.23
2023-04-30T10:06:41.557Z,44.96
2023-04-30T10:11:48.482Z,44.89
2023-04-30T10:16:55.723Z,44.50
2023-04-30T10:22:02.874Z,44.16
2023-04-30T10:27:10.121Z,44.73
2023-04-30T10:32:17.468Z,44.50
2023-04-30T10:37:24.558Z,44.46
2023-04-30T10:42:31.705Z,44.63
2023-04-30T10:47:38.892Z,44.25
2023-04-30T10:52:46.085Z,44.00
2023-04-30T10:57:53.234Z,44.30
2023-04-30T11:03:00.454Z,44.38
2023-04-30T11:08:07.648Z,44.18
2023-04-30T11:13:14.822Z,43.98
2023-04-30T11:18:22.023Z,44.18
2023-04-30T11:23:39.401Z,43.75
2023-04-30T11:28:36.494Z,44.01
2023-04-30T11:33:43.657Z,44.11
2023-04-30T11:38:50.943Z,43.60
2023-04-30T11:43:58.113Z,44.13
2023-04-30T11:49:05.297Z,43.81
2023-04-30T11:54:12.530Z,43.69
2023-04-30T11:59:19.693Z,43.74
2023-04-30T12:04:26.890Z,43.91
2023-04-30T12:09:34.366Z,43.83
2023-04-30T12:14:41.523Z,43.85
2023-04-30T12:19:48.720Z,43.50
2023-04-30T12:24:56.012Z,43.66
2023-04-30T12:30:03.112Z,43.50
2023-04-30T12:35:10.268Z,43.64
2023-04-30T12:40:17.459Z,43.94
2023-04-30T12:45:24.632Z,44.04
2023-04-30T12:50:31.821Z,44.36
2023-04-30T12:55:39.062Z,43.79
2023-04-30T13:00:46.204Z,44.01
2023-04-30T13:05:53.373Z,43.75
2023-04-30T13:11:00.561Z,43.63
2023-04-30T13:16:07.842Z,43.51
2023-04-30T13:21:14.938Z,43.65
2023-04-30T13:26:22.165Z,43.63
2023-04-30T13:31:29.462Z,43.61
2023-04-30T13:36:36.628Z,43.21
2023-04-30T13:41:43.966Z,43.14
2023-04-30T13:46:51.220Z,43.52
2023-04-30T13:51:58.449Z,43.61
2023-04-30T13:57:05.759Z,43.38
2023-04-30T14:02:12.978Z,43.18
2023-04-30T14:07:20.248Z,43.04
2023-04-30T14:12:27.515Z,43.13
2023-04-30T14:17:34.724Z,43.61
2023-04-30T14:22:41.860Z,43.69
2023-04-30T14:27:49.166Z,43.91
2023-04-30T14:32:56.356Z,43.58
2023-04-30T14:38:03.511Z,44.11
2023-04-30T14:43:10.735Z,43.95
2023-04-30T14:48:17.951Z,43.75
2023-04-30T14:53:25.146Z,43.37
2023-04-30T14:58:32.389Z,43.22
2023-04-30T15:03:39.685Z,43.01
2023-04-30T15:08:46.846Z,42.88
2023-04-30T15:13:54.047Z,42.69
2023-04-30T15:19:01.192Z,42.54
2023-04-30T15:24:08.398Z,42.49
2023-04-30T15:29:15.602Z,42.44
2023-04-30T15:34:22.773Z,42.34
2023-04-30T15:39:29.943Z,42.31
2023-04-30T15:44:37.221Z,42.19
2023-04-30T15:49:44.413Z,42.20
2023-04-30T15:54:51.693Z,42.15
2023-04-30T15:59:59.026Z,42.12
2023-04-30T16:05:06.177Z,42.14
2023-04-30T16:10:13.546Z,42.08
2023-04-30T16:15:20.875Z,42.00
2023-04-30T16:20:28.223Z,41.92
2023-04-30T16:25:35.466Z,41.89
2023-04-30T16:30:42.715Z,41.89
2023-04-30T16:35:49.890Z,41.87
2023-04-30T16:40:57.083Z,41.84
2023-04-30T16:46:04.697Z,41.80
2023-04-30T16:51:11.945Z,41.78
2023-04-30T16:56:19.141Z,41.73
2023-04-30T17:01:26.379Z,41.76
2023-04-30T17:06:33.678Z,41.73
2023-04-30T17:11:40.778Z,41.75
2023-04-30T17:16:48.349Z,41.71
2023-04-30T17:21:55.715Z,41.67
2023-04-30T17:27:02.982Z,41.69
2023-04-30T17:32:10.581Z,41.99
2023-04-30T17:37:17.926Z,41.83
2023-04-30T17:42:25.478Z,41.79
2023-04-30T17:47:32.962Z,41.63
2023-04-30T17:52:40.318Z,41.69
2023-04-30T17:57:47.820Z,41.63
2023-04-30T18:02:55.282Z,41.37
2023-04-30T18:08:02.504Z,41.31
2023-04-30T18:13:10.051Z,41.40
2023-04-30T18:18:17.471Z,41.31
2023-04-30T18:23:25.068Z,41.15
2023-04-30T18:28:32.506Z,41.29
2023-04-30T18:33:39.741Z,41.34
2023-04-30T18:38:47.213Z,41.26
2023-04-30T18:43:54.909Z,41.20
2023-04-30T18:49:02.410Z,41.18
2023-04-30T18:54:09.926Z,41.08
2023-04-30T18:59:17.204Z,41.15
2023-04-30T19:04:24.466Z,41.02
2023-04-30T19:09:31.886Z,41.08
2023-04-30T19:14:39.313Z,40.80
2023-04-30T19:19:46.890Z,40.76
2023-04-30T19:24:54.603Z,40.76
2023-04-30T19:30:02.241Z,40.75
2023-04-30T19:35:10.466Z,40.89
2023-04-30T19:40:18.776Z,40.66
2023-04-30T19:45:26.497Z,40.54
2023-04-30T19:50:33.931Z,40.58
2023-04-30T19:55:41.512Z,40.57
2023-04-30T20:00:48.763Z,40.52
2023-04-30T20:05:56.417Z,40.64
2023-04-30T20:11:04.060Z,40.72
2023-04-30T20:16:11.038Z,40.68
2023-04-30T20:21:20.571Z,40.67
2023-04-30T20:26:26.184Z,40.67
2023-04-30T20:31:34.508Z,40.67
2023-04-30T20:36:41.796Z,40.67
2023-04-30T20:41:49.153Z,40.66
2023-04-30T20:46:56.818Z,40.64
2023-04-30T20:52:04.430Z,40.63
2023-04-30T20:57:11.808Z,40.65
2023-04-30T21:02:19.122Z,40.62
2023-04-30T21:07:26.395Z,40.62
2023-04-30T21:12:33.667Z,40.54
2023-04-30T21:17:41.022Z,40.53
2023-04-30T21:22:48.330Z,40.46
2023-04-30T21:27:55.532Z,40.44
2023-04-30T21:33:02.833Z,40.35
2023-04-30T21:38:10.161Z,40.35
2023-04-30T21:43:17.390Z,40.31
2023-04-30T21:48:24.666Z,40.52
2023-04-30T21:53:32.071Z,40.29
2023-04-30T21:58:39.333Z,40.19
2023-04-30T22:03:46.554Z,40.26
2023-04-30T22:08:53.818Z,40.25
2023-04-30T22:14:00.988Z,40.16
2023-04-30T22:19:08.216Z,40.19
2023-04-30T22:24:15.461Z,40.11
2023-04-30T22:29:22.710Z,40.40
2023-04-30T22:34:29.971Z,40.25
2023-04-30T22:39:37.226Z,40.18
2023-04-30T22:44:44.375Z,40.15
2023-04-30T22:49:51.563Z,40.20
2023-04-30T22:54:58.760Z,40.03
2023-04-30T23:00:05.935Z,40.12
2023-04-30T23:05:13.139Z,40.30
2023-04-30T23:10:20.446Z,40.50
2023-04-30T23:15:27.688Z,40.60
2023-04-30T23:20:34.881Z,40.86
2023-04-30T23:25:42.179Z,40.83
2023-04-30T23:31:24.677Z,40.83
2023-04-30T23:36:33.103Z,40.87
2023-04-30T23:42:16.903Z,41.03
2023-04-30T23:48:06.977Z,41.03
2023-04-30T23:53:49.623Z,41.18
2023-04-30T23:59:15.055Z,41.25
